Time;durP1;ratioP1;P1;durP2;ratioP2;P2;SDS_P1;SDS_P2;PMS_P1;PMS_P2;Temp;Humidity;BMP_temperature;BMP_pressure;BME280_temperature;BME280_humidity;BME280_pressure;Samples;Min_cycle;Max_cycle;Signal;HPM_P1;HPM_P2
2021/05/28 00:01:22;;;;;;;4.67;3.70;;;9.70;99.90;;;;;;5037507;28;20422;-78
2021/05/28 00:03:48;;;;;;;5.43;4.47;;;9.70;99.90;;;;;;5055592;28;20377;-78
2021/05/28 00:06:14;;;;;;;4.77;4.13;;;9.70;99.90;;;;;;5037372;28;20052;-78
2021/05/28 00:08:40;;;;;;;5.17;3.77;;;9.70;99.90;;;;;;5055427;28;20465;-78
2021/05/28 00:11:06;;;;;;;6.63;4.30;;;9.70;99.90;;;;;;5055038;28;20104;-78
2021/05/28 00:13:32;;;;;;;6.17;4.53;;;9.70;99.90;;;;;;5055503;28;20025;-78
2021/05/28 00:15:58;;;;;;;5.83;4.47;;;9.70;99.90;;;;;;5055457;28;20104;-78
2021/05/28 00:18:24;;;;;;;7.30;4.70;;;9.70;99.90;;;;;;5055050;28;20045;-78
2021/05/28 00:20:49;;;;;;;6.60;4.57;;;9.70;99.90;;;;;;5055257;28;20056;-78
2021/05/28 00:23:15;;;;;;;5.83;4.20;;;9.60;99.90;;;;;;5055242;28;20056;-78
2021/05/28 00:25:41;;;;;;;7.73;4.40;;;9.60;99.90;;;;;;5054869;28;20041;-78
2021/05/28 00:28:06;;;;;;;6.37;4.30;;;9.60;99.90;;;;;;5055160;28;20068;-78
2021/05/28 00:30:32;;;;;;;5.33;4.47;;;9.60;99.90;;;;;;5054952;28;20025;-78
2021/05/28 00:32:57;;;;;;;4.93;3.90;;;9.60;99.90;;;;;;5055159;28;20418;-78
2021/05/28 00:35:23;;;;;;;7.37;4.40;;;9.60;99.90;;;;;;5036792;28;20025;-78
2021/05/28 00:37:49;;;;;;;5.63;4.73;;;9.60;99.90;;;;;;5054990;28;20025;-78
2021/05/28 00:40:15;;;;;;;6.50;4.10;;;9.60;99.90;;;;;;5054917;28;20021;-78
2021/05/28 00:42:41;;;;;;;6.93;4.70;;;9.60;99.90;;;;;;5054635;28;20037;-78
2021/05/28 00:45:07;;;;;;;5.67;3.97;;;9.60;99.90;;;;;;5036718;28;20033;-78
2021/05/28 00:47:33;;;;;;;7.60;4.73;;;9.60;99.90;;;;;;5036578;28;20091;-78
2021/05/28 00:49:59;;;;;;;6.30;4.10;;;9.60;99.90;;;;;;5053535;28;20035;-78
2021/05/28 00:52:25;;;;;;;4.37;3.83;;;9.60;99.90;;;;;;5054816;28;20429;-78
2021/05/28 00:54:51;;;;;;;5.27;4.03;;;9.60;99.90;;;;;;5054308;28;20029;-78
2021/05/28 00:57:19;;;;;;;5.23;4.00;;;9.60;99.90;;;;;;5054696;28;20053;-82
2021/05/28 00:59:48;;;;;;;5.23;4.40;;;9.50;99.90;;;;;;5036364;28;20032;-77
2021/05/28 01:02:13;;;;;;;3.93;3.53;;;9.50;99.90;;;;;;5054244;28;20056;-77
2021/05/28 01:04:39;;;;;;;4.40;3.60;;;9.40;99.90;;;;;;5036630;28;20147;-76
2021/05/28 01:07:04;;;;;;;4.80;3.80;;;9.40;99.90;;;;;;5054150;28;20040;-76
2021/05/28 01:09:30;;;;;;;6.43;3.70;;;9.40;99.90;;;;;;5054351;28;20051;-76
2021/05/28 01:11:55;;;;;;;3.83;3.43;;;9.30;99.90;;;;;;5054478;28;20370;-77
2021/05/28 01:14:21;;;;;;;8.10;3.50;;;9.30;99.90;;;;;;5054281;28;20025;-77
2021/05/28 01:16:47;;;;;;;4.50;3.57;;;9.20;99.90;;;;;;5035956;28;20025;-76
2021/05/28 01:19:12;;;;;;;6.63;3.20;;;9.20;99.90;;;;;;5053838;28;20044;-76
2021/05/28 01:21:40;;;;;;;4.60;3.30;;;9.10;99.90;;;;;;5054152;28;20025;-76
2021/05/28 01:24:06;;;;;;;6.33;3.57;;;9.10;99.90;;;;;;5053909;28;20032;-76
2021/05/28 01:26:32;;;;;;;5.10;4.10;;;9.00;99.90;;;;;;5054396;28;20083;-76
2021/05/28 01:28:57;;;;;;;7.00;3.60;;;9.00;99.90;;;;;;5054037;28;20107;-76
2021/05/28 01:31:23;;;;;;;6.50;3.63;;;8.90;99.90;;;;;;5053599;28;20079;-76
2021/05/28 01:33:48;;;;;;;6.57;3.60;;;8.80;99.90;;;;;;5053936;28;20152;-76
2021/05/28 01:36:14;;;;;;;4.03;3.20;;;8.80;99.90;;;;;;5054120;28;20017;-76
2021/05/28 01:38:40;;;;;;;4.67;3.80;;;8.70;99.90;;;;;;5053811;28;20072;-76
2021/05/28 01:41:06;;;;;;;5.53;3.90;;;8.60;99.90;;;;;;5053490;28;20052;-76
2021/05/28 01:43:32;;;;;;;6.37;3.80;;;8.60;99.90;;;;;;5053739;28;20052;-77
2021/05/28 01:45:58;;;;;;;4.73;4.10;;;8.60;99.90;;;;;;5053465;28;20031;-76
2021/05/28 01:48:24;;;;;;;6.63;4.00;;;8.50;99.90;;;;;;5053977;28;20029;-77
2021/05/28 01:50:51;;;;;;;4.57;3.87;;;8.50;99.90;;;;;;5035419;28;20025;-76
2021/05/28 01:53:20;;;;;;;5.77;3.90;;;8.50;99.90;;;;;;5053723;28;20017;-77
2021/05/28 01:55:46;;;;;;;6.53;4.30;;;8.50;99.90;;;;;;5053675;28;20021;-77
2021/05/28 01:58:14;;;;;;;4.30;3.43;;;8.50;99.90;;;;;;5053636;28;20103;-76
2021/05/28 02:00:41;;;;;;;9.03;3.70;;;8.40;99.90;;;;;;5053069;28;20370;-77
2021/05/28 02:03:07;;;;;;;4.10;3.70;;;8.40;99.90;;;;;;5053543;28;20056;-77
2021/05/28 02:05:34;;;;;;;5.27;3.73;;;8.40;99.90;;;;;;5053141;28;20024;-77
2021/05/28 02:08:01;;;;;;;7.67;3.90;;;8.40;99.90;;;;;;5053685;28;20020;-77
2021/05/28 02:10:28;;;;;;;5.50;3.97;;;8.30;99.90;;;;;;5053605;28;20509;-77
2021/05/28 02:12:54;;;;;;;3.83;3.40;;;8.30;99.90;;;;;;5053322;28;20116;-76
2021/05/28 02:15:22;;;;;;;5.00;3.60;;;8.20;99.90;;;;;;5053136;28;20053;-77
2021/05/28 02:17:50;;;;;;;6.80;3.83;;;8.20;99.90;;;;;;5053099;28;20434;-77
2021/05/28 02:20:15;;;;;;;6.57;3.83;;;8.20;99.90;;;;;;5053282;28;20049;-76
2021/05/28 02:22:41;;;;;;;5.43;3.40;;;8.20;99.90;;;;;;5053548;28;20075;-77
2021/05/28 02:25:08;;;;;;;6.13;4.10;;;8.10;99.90;;;;;;5053206;28;20036;-76
2021/05/28 02:27:35;;;;;;;6.63;4.07;;;8.10;99.90;;;;;;5052742;28;20554;-77
2021/05/28 02:30:03;;;;;;;5.37;3.53;;;8.10;99.90;;;;;;5052926;28;20033;-77
2021/05/28 02:32:29;;;;;;;4.57;3.80;;;8.10;99.90;;;;;;5053084;28;20033;-76
2021/05/28 02:34:54;;;;;;;6.53;3.63;;;8.00;99.90;;;;;;5053066;28;20040;-76
2021/05/28 02:37:20;;;;;;;5.97;4.13;;;8.00;99.90;;;;;;5052863;28;20104;-77
2021/05/28 02:39:46;;;;;;;5.30;4.00;;;8.00;99.90;;;;;;5035080;28;20021;-77
2021/05/28 02:42:12;;;;;;;6.87;4.27;;;7.90;99.90;;;;;;5052812;28;20047;-77
2021/05/28 02:44:41;;;;;;;5.03;4.10;;;7.90;99.90;;;;;;5053047;28;20029;-76
2021/05/28 02:47:07;;;;;;;4.80;3.60;;;7.90;99.90;;;;;;5053335;28;20024;-77
2021/05/28 02:49:32;;;;;;;8.67;4.40;;;7.80;99.90;;;;;;5053029;28;20025;-76
2021/05/28 02:52:01;;;;;;;5.07;4.17;;;7.80;99.90;;;;;;5052959;28;20152;-77
2021/05/28 02:54:27;;;;;;;6.17;4.00;;;7.70;99.90;;;;;;5052699;28;20108;-76
2021/05/28 02:56:53;;;;;;;6.90;4.00;;;7.60;99.90;;;;;;5053182;28;20029;-76
2021/05/28 02:59:18;;;;;;;4.50;3.87;;;7.60;99.90;;;;;;5053104;28;20021;-77
2021/05/28 03:01:44;;;;;;;5.07;3.70;;;7.50;99.90;;;;;;5052875;28;20370;-76
2021/05/28 03:04:09;;;;;;;4.33;3.40;;;7.50;99.90;;;;;;5052882;28;20037;-76
2021/05/28 03:06:35;;;;;;;7.93;4.60;;;7.40;99.90;;;;;;5052814;28;20032;-76
2021/05/28 03:09:01;;;;;;;4.77;3.97;;;7.40;99.90;;;;;;5052825;28;20033;-77
2021/05/28 03:11:26;;;;;;;6.07;4.43;;;7.40;99.90;;;;;;5052715;28;20095;-77
2021/05/28 03:13:52;;;;;;;6.33;4.33;;;7.40;99.90;;;;;;5054875;28;20036;-77
2021/05/28 03:16:18;;;;;;;7.90;4.33;;;7.40;99.90;;;;;;5056578;28;20480;-77
2021/05/28 03:18:49;;;;;;;5.37;4.33;;;7.30;99.90;;;;;;5038217;28;20131;-77
2021/05/28 03:21:20;;;;;;;7.93;4.77;;;7.30;99.90;;;;;;5056397;28;20069;-77
2021/05/28 03:23:56;;;;;;;5.07;4.20;;;7.30;99.90;;;;;;5056239;28;20470;-77
2021/05/28 03:26:22;;;;;;;4.97;4.30;;;7.20;99.90;;;;;;5056371;28;20029;-77
2021/05/28 03:28:48;;;;;;;6.50;4.47;;;7.20;99.90;;;;;;5055907;28;20025;-77
2021/05/28 03:31:14;;;;;;;8.03;5.00;;;7.20;99.90;;;;;;5056166;28;20033;-77
2021/05/28 03:33:40;;;;;;;8.13;4.87;;;7.20;99.90;;;;;;5056224;28;20032;-77
2021/05/28 03:36:07;;;;;;;6.23;3.93;;;7.20;99.90;;;;;;5038000;28;20040;-77
2021/05/28 03:38:32;;;;;;;7.33;4.63;;;7.20;99.90;;;;;;5055742;28;20040;-77
2021/05/28 03:40:58;;;;;;;5.77;4.37;;;7.20;99.90;;;;;;5056082;28;20081;-77
2021/05/28 03:43:24;;;;;;;5.90;4.50;;;7.20;99.90;;;;;;5037869;28;20433;-77
2021/05/28 03:45:50;;;;;;;7.77;4.77;;;7.20;99.90;;;;;;5055793;28;20134;-77
2021/05/28 03:48:16;;;;;;;5.50;4.30;;;7.20;99.90;;;;;;5055881;28;20033;-77
2021/05/28 03:50:41;;;;;;;5.50;4.30;;;7.30;99.90;;;;;;5055810;28;20029;-77
2021/05/28 03:53:07;;;;;;;5.20;4.30;;;7.30;99.90;;;;;;5055619;28;20064;-77
2021/05/28 03:55:33;;;;;;;6.20;4.80;;;7.40;99.90;;;;;;5055790;28;20029;-77
2021/05/28 03:57:58;;;;;;;5.80;4.40;;;7.40;99.90;;;;;;5055801;28;20450;-76
2021/05/28 04:00:25;;;;;;;6.20;4.87;;;7.40;99.90;;;;;;5056003;28;20037;-77
2021/05/28 04:02:51;;;;;;;6.90;4.93;;;7.40;99.90;;;;;;5055403;28;20029;-77
2021/05/28 04:05:17;;;;;;;9.33;5.67;;;7.50;99.90;;;;;;5055357;28;20061;-77
2021/05/28 04:07:43;;;;;;;11.60;7.37;;;7.40;99.90;;;;;;5055577;28;20374;-77
2021/05/28 04:10:09;;;;;;;14.53;7.10;;;7.50;99.90;;;;;;5055228;28;20029;-76
2021/05/28 04:12:35;;;;;;;12.57;7.47;;;7.50;99.90;;;;;;5037229;28;20466;-76
2021/05/28 04:15:01;;;;;;;13.73;8.87;;;7.50;99.90;;;;;;5055273;28;20029;-75
2021/05/28 04:17:26;;;;;;;13.37;9.10;;;7.50;99.90;;;;;;5055006;28;20052;-75
2021/05/28 04:19:52;;;;;;;14.23;8.93;;;7.50;99.90;;;;;;5055389;28;20032;-75
2021/05/28 04:22:17;;;;;;;14.80;9.47;;;7.50;99.90;;;;;;5056394;28;20030;-78
2021/05/28 04:24:43;;;;;;;14.13;9.10;;;7.50;99.90;;;;;;5027560;28;20040;-76
2021/05/28 04:27:12;;;;;;;14.80;8.97;;;7.60;99.90;;;;;;5035334;28;20025;-76
2021/05/28 04:29:37;;;;;;;14.17;7.67;;;7.60;99.90;;;;;;5035360;28;20108;-76
2021/05/28 04:32:04;;;;;;;11.50;7.23;;;7.70;99.90;;;;;;5017133;28;20545;-76
2021/05/28 04:34:29;;;;;;;9.33;6.70;;;7.80;99.90;;;;;;5017139;28;20467;-76
2021/05/28 04:36:55;;;;;;;10.67;6.60;;;7.90;99.90;;;;;;5035128;28;20052;-77
2021/05/28 04:39:21;;;;;;;15.47;6.70;;;8.00;99.90;;;;;;5034696;28;20076;-76
2021/05/28 04:41:46;;;;;;;10.33;5.90;;;8.10;99.90;;;;;;5017852;28;20528;-77
2021/05/28 04:44:13;;;;;;;6.90;4.77;;;8.20;99.90;;;;;;5033667;28;20061;-79
2021/05/28 04:46:39;;;;;;;6.90;4.30;;;8.30;99.90;;;;;;5050904;28;20064;-79
2021/05/28 04:49:04;;;;;;;8.93;5.07;;;8.40;99.90;;;;;;5048010;28;20052;-79
2021/05/28 04:51:30;;;;;;;6.37;4.67;;;8.50;99.90;;;;;;5050375;28;20025;-79
2021/05/28 04:53:56;;;;;;;10.00;4.23;;;8.50;99.90;;;;;;5050317;28;20025;-79
2021/05/28 04:56:22;;;;;;;7.77;4.40;;;8.60;99.90;;;;;;5050180;28;20040;-79
2021/05/28 04:58:48;;;;;;;5.20;3.80;;;8.60;99.90;;;;;;5052903;28;20025;-78
2021/05/28 05:01:13;;;;;;;6.20;4.03;;;8.70;99.90;;;;;;5032044;28;20021;-78
2021/05/28 05:03:39;;;;;;;6.13;3.53;;;8.80;99.90;;;;;;5051380;28;20069;-80
2021/05/28 05:06:04;;;;;;;6.50;3.80;;;8.90;99.90;;;;;;5050078;28;20021;-80
2021/05/28 05:08:31;;;;;;;4.63;3.43;;;9.00;99.90;;;;;;5047975;28;20032;-81
2021/05/28 05:10:57;;;;;;;4.83;3.77;;;9.00;99.90;;;;;;5050749;28;20373;-80
2021/05/28 05:13:22;;;;;;;7.10;3.93;;;9.10;99.90;;;;;;5051142;28;20017;-80
2021/05/28 05:15:48;;;;;;;3.77;3.00;;;9.10;99.90;;;;;;5045170;28;20458;-80
2021/05/28 05:18:13;;;;;;;7.00;3.43;;;9.10;99.90;;;;;;5056208;28;20052;-76
2021/05/28 05:20:39;;;;;;;6.33;3.50;;;9.10;99.90;;;;;;5057019;28;20508;-80
2021/05/28 05:23:05;;;;;;;4.87;3.53;;;9.20;99.90;;;;;;5051770;28;20025;-80
2021/05/28 05:25:32;;;;;;;4.73;3.27;;;9.20;99.90;;;;;;5051669;28;20477;-80
2021/05/28 05:27:57;;;;;;;6.90;2.90;;;9.20;99.90;;;;;;5040584;28;20109;-80
2021/05/28 05:30:23;;;;;;;6.33;2.73;;;9.40;99.90;;;;;;5048620;28;20134;-80
2021/05/28 05:32:49;;;;;;;3.53;2.33;;;9.60;99.90;;;;;;5033198;28;20035;-80
2021/05/28 05:35:14;;;;;;;4.63;2.53;;;9.90;99.90;;;;;;5050257;28;20096;-80
2021/05/28 05:37:40;;;;;;;3.37;2.07;;;10.10;99.90;;;;;;5050835;28;20159;-80
2021/05/28 05:40:07;;;;;;;7.00;2.57;;;10.40;99.90;;;;;;5050974;28;20017;-80
2021/05/28 05:42:36;;;;;;;4.07;2.13;;;10.60;99.90;;;;;;5050999;28;20146;-80
2021/05/28 05:45:02;;;;;;;4.60;2.33;;;10.80;99.90;;;;;;5047585;28;20084;-81
2021/05/28 05:47:28;;;;;;;8.13;2.47;;;11.00;99.90;;;;;;5048168;28;20456;-80
2021/05/28 05:49:53;;;;;;;5.10;2.90;;;11.20;99.90;;;;;;5030114;28;20028;-81
2021/05/28 05:52:19;;;;;;;4.75;2.72;;;11.40;99.90;;;;;;5047807;28;20028;-78
2021/05/28 05:54:44;;;;;;;4.97;2.47;;;11.50;99.90;;;;;;5053644;28;20021;-78
2021/05/28 05:57:10;;;;;;;3.70;2.33;;;11.70;99.90;;;;;;5053920;28;20070;-78
2021/05/28 05:59:35;;;;;;;4.80;2.13;;;11.80;99.90;;;;;;5035500;28;20481;-78
2021/05/28 06:02:02;;;;;;;3.38;2.00;;;11.90;99.90;;;;;;5035482;28;20032;-78
2021/05/28 06:04:27;;;;;;;6.50;2.20;;;12.00;99.90;;;;;;5053730;28;20049;-79
2021/05/28 06:06:53;;;;;;;4.03;2.10;;;12.10;99.90;;;;;;5053385;28;20048;-78
2021/05/28 06:09:18;;;;;;;8.65;2.05;;;12.20;99.90;;;;;;5053670;28;20071;-79
2021/05/28 06:11:44;;;;;;;2.97;2.08;;;12.20;99.90;;;;;;5053093;28;20082;-78
2021/05/28 06:14:12;;;;;;;3.70;1.75;;;12.30;99.90;;;;;;5056288;28;20082;-80
2021/05/28 06:16:37;;;;;;;6.82;2.25;;;12.40;99.90;;;;;;5047561;28;20021;-81
2021/05/28 06:19:03;;;;;;;4.15;2.20;;;12.60;99.90;;;;;;5046853;28;20489;-81
2021/05/28 06:21:31;;;;;;;5.10;2.45;;;12.70;99.90;;;;;;5048480;28;20028;-77
2021/05/28 06:23:57;;;;;;;6.03;2.78;;;12.90;99.90;;;;;;5053922;28;20130;-81
2021/05/28 06:26:23;;;;;;;4.80;2.22;;;12.90;99.90;;;;;;5048519;28;20104;-77
2021/05/28 06:28:48;;;;;;;3.92;2.22;;;13.00;99.90;;;;;;5053520;28;20084;-78
2021/05/28 06:31:14;;;;;;;3.78;2.38;;;12.90;99.90;;;;;;5035076;28;20080;-78
2021/05/28 06:33:39;;;;;;;3.58;2.13;;;13.00;99.90;;;;;;5052923;28;20056;-79
2021/05/28 06:36:05;;;;;;;4.68;2.17;;;13.10;99.90;;;;;;5053509;28;20080;-79
2021/05/28 06:38:31;;;;;;;5.90;2.50;;;13.20;99.90;;;;;;5052839;28;20028;-79
2021/05/28 06:40:57;;;;;;;3.78;2.28;;;13.20;99.90;;;;;;5052772;28;20389;-79
2021/05/28 06:43:22;;;;;;;3.67;2.85;;;13.30;99.90;;;;;;5053012;28;20029;-79
2021/05/28 06:45:48;;;;;;;7.10;2.65;;;13.30;99.90;;;;;;5053183;28;20021;-79
2021/05/28 06:48:13;;;;;;;4.38;2.58;;;13.40;99.90;;;;;;5054364;28;20033;-77
2021/05/28 06:50:40;;;;;;;4.18;2.95;;;13.40;99.90;;;;;;5056835;28;20036;-77
2021/05/28 06:53:06;;;;;;;5.65;3.22;;;13.40;99.90;;;;;;5056673;28;20025;-78
2021/05/28 06:55:32;;;;;;;5.90;2.78;;;13.50;99.90;;;;;;5057176;28;20036;-79
2021/05/28 06:57:57;;;;;;;4.20;2.75;;;13.60;99.90;;;;;;5056666;28;20024;-79
2021/05/28 07:00:23;;;;;;;5.15;2.58;;;13.70;99.90;;;;;;5056755;28;20040;-79
2021/05/28 07:02:49;;;;;;;4.70;2.78;;;13.70;99.90;;;;;;5056765;28;20043;-79
2021/05/28 07:05:15;;;;;;;6.00;3.17;;;13.70;99.90;;;;;;5038459;28;20420;-79
2021/05/28 07:07:41;;;;;;;4.40;2.55;;;13.70;99.90;;;;;;5056947;28;20036;-79
2021/05/28 07:10:08;;;;;;;3.47;2.75;;;13.80;99.90;;;;;;5038533;28;20029;-79
2021/05/28 07:12:35;;;;;;;4.95;3.00;;;13.70;99.90;;;;;;5035250;28;20029;-81
2021/05/28 07:15:02;;;;;;;5.13;2.88;;;13.90;99.90;;;;;;5070466;28;20025;-79
2021/05/28 07:17:28;;;;;;;4.60;2.70;;;14.10;99.90;;;;;;5076573;28;20136;-79
2021/05/28 07:19:53;;;;;;;3.88;2.70;;;14.10;99.90;;;;;;5076568;28;20095;-79
2021/05/28 07:22:19;;;;;;;6.07;2.80;;;14.00;99.90;;;;;;5076542;28;20476;-78
2021/05/28 07:24:44;;;;;;;5.55;2.92;;;14.20;99.90;;;;;;5076502;28;20028;-78
2021/05/28 07:27:10;;;;;;;5.95;3.22;;;14.20;99.90;;;;;;5076330;28;20035;-78
2021/05/28 07:29:35;;;;;;;8.27;3.42;;;14.20;99.90;;;;;;5076100;28;20021;-78
2021/05/28 07:32:02;;;;;;;3.25;2.75;;;14.20;99.90;;;;;;5058119;28;20040;-80
2021/05/28 07:34:28;;;;;;;5.55;3.08;;;14.30;99.90;;;;;;5058048;28;20056;-80
2021/05/28 07:36:54;;;;;;;6.35;2.97;;;14.40;99.90;;;;;;5064613;28;20091;-80
2021/05/28 07:39:43;;;;;;;6.05;3.00;;;14.40;99.90;;;;;;5062187;28;20416;-80
2021/05/28 07:42:08;;;;;;;6.93;3.30;;;14.40;99.90;;;;;;5049662;28;20060;-82
2021/05/28 07:44:34;;;;;;;4.15;3.00;;;14.60;99.90;;;;;;5053977;28;20071;-71
2021/05/28 07:47:00;;;;;;;3.13;2.55;;;14.50;99.90;;;;;;5059159;28;20430;-71
2021/05/28 07:49:26;;;;;;;6.55;2.85;;;14.50;99.90;;;;;;5056199;28;20052;-71
2021/05/28 07:51:52;;;;;;;4.65;2.97;;;14.50;99.90;;;;;;5059817;28;20049;-71
2021/05/28 07:54:18;;;;;;;6.30;3.00;;;14.60;99.90;;;;;;5055743;28;20047;-71
2021/05/28 07:56:44;;;;;;;4.63;2.40;;;14.60;99.90;;;;;;5057673;28;20096;-78
2021/05/28 07:59:09;;;;;;;5.18;3.15;;;14.60;99.90;;;;;;5048411;28;20032;-76
2021/05/28 08:01:35;;;;;;;4.72;3.00;;;14.70;99.90;;;;;;5051377;28;20060;-76
2021/05/28 08:04:03;;;;;;;4.57;2.95;;;14.80;99.90;;;;;;5065275;28;20023;-75
2021/05/28 08:06:29;;;;;;;4.95;2.55;;;14.80;99.90;;;;;;5056894;28;20370;-75
2021/05/28 08:08:55;;;;;;;5.07;2.45;;;14.80;99.90;;;;;;5054462;28;20036;-75
2021/05/28 08:11:21;;;;;;;6.25;2.63;;;14.70;99.90;;;;;;5054367;28;20021;-76
2021/05/28 08:13:47;;;;;;;6.30;2.72;;;14.60;99.90;;;;;;5035531;28;20214;-75
2021/05/28 08:16:12;;;;;;;11.52;3.25;;;14.70;99.90;;;;;;5055329;28;20473;-75
2021/05/28 08:18:38;;;;;;;5.68;3.22;;;14.60;99.90;;;;;;5060031;28;20041;-76
2021/05/28 08:21:05;;;;;;;4.85;3.33;;;14.80;99.90;;;;;;5054254;28;20032;-77
2021/05/28 08:23:31;;;;;;;5.90;3.38;;;15.00;99.90;;;;;;5052406;28;20040;-76
2021/05/28 08:25:57;;;;;;;6.97;3.22;;;15.00;99.90;;;;;;5040201;28;20481;-76
2021/05/28 08:28:23;;;;;;;5.65;3.33;;;15.00;99.90;;;;;;5052630;28;20035;-78
2021/05/28 08:30:48;;;;;;;3.38;3.00;;;15.30;99.90;;;;;;5050996;28;20767;-78
2021/05/28 08:33:15;;;;;;;6.28;3.80;;;15.50;99.90;;;;;;5048619;28;20473;-78
2021/05/28 08:35:42;;;;;;;4.75;2.90;;;15.40;99.90;;;;;;5048026;28;20025;-78
2021/05/28 08:38:08;;;;;;;5.07;3.20;;;15.30;99.90;;;;;;5048549;28;20021;-78
2021/05/28 08:40:34;;;;;;;5.45;3.45;;;15.20;99.90;;;;;;5036423;28;20446;-76
2021/05/28 08:43:05;;;;;;;7.40;3.17;;;15.20;99.90;;;;;;5044670;28;20021;-76
2021/05/28 08:45:38;;;;;;;6.28;3.03;;;15.30;99.90;;;;;;5054702;28;20640;-76
2021/05/28 08:48:05;;;;;;;5.72;3.08;;;15.40;99.90;;;;;;5054635;28;20013;-76
2021/05/28 08:50:31;;;;;;;6.95;3.30;;;15.50;99.90;;;;;;5054671;28;20025;-77
2021/05/28 08:52:59;;;;;;;3.75;2.75;;;15.40;99.90;;;;;;5040404;28;20557;-77
2021/05/28 08:55:25;;;;;;;9.30;5.22;;;15.40;99.90;;;;;;5063925;28;20025;-77
2021/05/28 08:57:51;;;;;;;4.35;3.95;;;15.70;99.90;;;;;;5054054;28;20031;-77
2021/05/28 09:00:17;;;;;;;4.07;3.13;;;15.90;99.90;;;;;;5055663;28;20028;-79
2021/05/28 09:02:42;;;;;;;5.97;3.80;;;16.00;99.90;;;;;;5048483;28;20451;-79
2021/05/28 09:05:21;;;;;;;4.35;3.33;;;16.20;99.90;;;;;;5037969;28;20116;-79
2021/05/28 09:07:59;;;;;;;4.10;3.33;;;16.20;99.90;;;;;;5039161;28;20104;-79
2021/05/28 09:10:36;;;;;;;7.10;3.72;;;16.20;99.90;;;;;;5053264;28;20463;-78
2021/05/28 09:13:21;;;;;;;5.32;4.00;;;16.20;99.90;;;;;;5053854;28;20358;-78
2021/05/28 09:16:04;;;;;;;5.30;3.22;;;16.50;99.90;;;;;;5050149;28;20364;-78
2021/05/28 09:18:48;;;;;;;3.80;3.00;;;16.40;99.90;;;;;;5054147;28;20041;-78
2021/05/28 09:21:31;;;;;;;4.40;2.90;;;16.30;99.90;;;;;;5047662;28;20136;-78
2021/05/28 09:23:58;;;;;;;5.65;3.47;;;16.20;99.90;;;;;;5055325;28;20023;-76
2021/05/28 09:26:30;;;;;;;7.80;3.25;;;16.10;99.90;;;;;;5050274;28;20517;-78
2021/05/28 09:28:57;;;;;;;4.20;3.08;;;16.00;99.90;;;;;;5032691;28;20068;-78
2021/05/28 09:31:24;;;;;;;4.57;3.25;;;16.10;99.90;;;;;;5038749;28;20024;-77
2021/05/28 09:33:52;;;;;;;6.65;3.50;;;16.00;99.90;;;;;;5049863;28;20037;-79
2021/05/28 09:36:23;;;;;;;3.72;2.80;;;15.80;99.90;;;;;;5052804;28;20029;-78
2021/05/28 09:39:10;;;;;;;5.22;3.40;;;15.80;99.90;;;;;;5053785;28;20021;-77
2021/05/28 09:41:40;;;;;;;4.13;2.70;;;15.70;99.90;;;;;;5053460;28;20380;-78
2021/05/28 09:44:17;;;;;;;5.05;3.33;;;15.70;99.90;;;;;;5053797;28;20033;-77
2021/05/28 09:47:08;;;;;;;6.10;3.28;;;15.80;99.90;;;;;;5049159;28;20370;-80
2021/05/28 09:49:51;;;;;;;5.90;3.10;;;15.80;99.90;;;;;;5045407;28;20036;-80
2021/05/28 09:52:18;;;;;;;5.47;2.97;;;15.80;99.90;;;;;;5039580;28;20025;-80
2021/05/28 09:55:09;;;;;;;4.45;3.03;;;15.80;99.90;;;;;;5043938;28;20032;-80
2021/05/28 09:57:43;;;;;;;4.20;3.08;;;15.90;99.90;;;;;;5046790;28;20080;-80
2021/05/28 10:00:33;;;;;;;4.07;2.80;;;16.00;99.90;;;;;;5037779;28;20024;-78
2021/05/28 10:03:21;;;;;;;4.43;3.05;;;16.10;99.90;;;;;;5035238;28;20029;-75
2021/05/28 10:05:58;;;;;;;3.78;2.50;;;15.90;99.90;;;;;;5052794;28;20032;-76
2021/05/28 10:08:26;;;;;;;3.50;2.58;;;16.00;99.90;;;;;;5052967;28;20025;-76
2021/05/28 10:10:53;;;;;;;5.25;2.75;;;16.00;99.90;;;;;;5052597;28;20036;-75
2021/05/28 10:13:21;;;;;;;4.40;2.83;;;16.00;99.90;;;;;;5052811;28;20104;-76
2021/05/28 10:15:53;;;;;;;3.40;3.00;;;15.90;99.90;;;;;;5045020;28;20153;-77
2021/05/28 10:18:19;;;;;;;5.78;2.85;;;15.90;99.90;;;;;;5042844;28;20052;-76
2021/05/28 10:20:50;;;;;;;5.43;3.38;;;15.80;99.90;;;;;;5041483;28;20069;-78
2021/05/28 10:23:17;;;;;;;6.68;3.30;;;15.70;99.90;;;;;;5052680;28;20025;-77
2021/05/28 10:25:44;;;;;;;5.47;3.08;;;15.80;99.90;;;;;;5069890;28;20358;-78
2021/05/28 10:28:21;;;;;;;5.18;3.33;;;15.90;99.90;;;;;;5070365;28;20020;-78
2021/05/28 10:30:49;;;;;;;7.55;3.80;;;16.10;99.90;;;;;;5040844;28;20037;-77
2021/05/28 10:33:26;;;;;;;5.72;3.30;;;16.20;99.90;;;;;;5046901;28;20029;-79
2021/05/28 10:35:54;;;;;;;7.55;3.50;;;16.50;99.90;;;;;;5041653;28;20128;-79
2021/05/28 10:38:29;;;;;;;6.32;3.50;;;16.60;99.90;;;;;;5047034;28;20013;-79
2021/05/28 10:41:15;;;;;;;4.30;3.88;;;17.00;99.90;;;;;;5069995;28;20461;-76
2021/05/28 10:43:50;;;;;;;7.07;4.20;;;17.10;99.90;;;;;;5038902;28;20056;-78
2021/05/28 10:46:20;;;;;;;5.07;3.58;;;17.20;99.90;;;;;;5046084;28;20028;-79
2021/05/28 10:48:45;;;;;;;7.32;4.03;;;17.40;99.90;;;;;;5049197;28;20026;-77
2021/05/28 10:51:41;;;;;;;6.20;3.78;;;17.70;99.90;;;;;;5041626;28;20033;-76
2021/05/28 10:54:07;;;;;;;5.47;3.60;;;17.70;99.90;;;;;;5024541;28;20533;-77
2021/05/28 10:56:35;;;;;;;8.32;3.75;;;17.60;99.90;;;;;;5048662;28;20116;-77
2021/05/28 10:59:09;;;;;;;4.90;4.20;;;17.50;99.90;;;;;;5049658;28;20033;-76
2021/05/28 11:01:52;;;;;;;6.18;4.32;;;17.50;99.90;;;;;;5048665;28;20033;-76
2021/05/28 11:04:24;;;;;;;6.75;4.00;;;17.70;99.90;;;;;;5052216;28;20033;-77
2021/05/28 11:06:59;;;;;;;5.65;4.50;;;17.70;99.90;;;;;;5035696;28;20116;-77
2021/05/28 11:09:47;;;;;;;4.75;3.05;;;17.70;99.90;;;;;;5031050;28;20108;-77
2021/05/28 11:12:16;;;;;;;6.13;3.30;;;17.70;99.90;;;;;;5050228;28;20021;-77
2021/05/28 11:15:02;;;;;;;5.15;3.50;;;17.50;99.90;;;;;;5048932;28;20071;-77
2021/05/28 11:17:28;;;;;;;5.25;3.30;;;17.30;99.90;;;;;;5039552;28;20393;-77
2021/05/28 11:20:03;;;;;;;7.35;3.67;;;17.10;99.90;;;;;;5048719;28;20441;-77
2021/05/28 11:22:32;;;;;;;4.95;3.20;;;17.00;99.90;;;;;;5048750;28;20020;-79
2021/05/28 11:25:02;;;;;;;5.15;3.47;;;17.10;99.90;;;;;;5049043;28;20021;-79
2021/05/28 11:27:28;;;;;;;5.70;2.95;;;17.20;99.90;;;;;;5050975;28;20027;-77
2021/05/28 11:30:15;;;;;;;6.15;3.70;;;17.40;99.90;;;;;;5052023;28;20537;-68
2021/05/28 11:32:44;;;;;;;6.57;4.60;;;17.80;99.90;;;;;;5050270;28;20029;-70
2021/05/28 11:35:44;;;;;;;7.30;4.43;;;18.20;99.90;;;;;;5054784;28;20017;-70
2021/05/28 11:38:12;;;;;;;6.47;4.80;;;18.10;99.90;;;;;;5051359;28;20049;-70
2021/05/28 11:40:40;;;;;;;6.13;4.18;;;18.30;99.90;;;;;;5055730;28;20017;-70
2021/05/28 11:43:07;;;;;;;5.78;4.28;;;18.40;99.90;;;;;;5055369;28;20021;-69
2021/05/28 11:45:33;;;;;;;9.63;4.32;;;18.60;99.90;;;;;;5068420;28;20028;-69
2021/05/28 11:47:59;;;;;;;5.65;4.47;;;18.90;99.90;;;;;;5065267;28;20102;-70
2021/05/28 11:50:25;;;;;;;5.75;3.97;;;19.10;99.90;;;;;;5054808;28;20033;-70
2021/05/28 11:53:00;;;;;;;5.68;4.00;;;18.90;99.90;;;;;;5058662;28;20052;-69
2021/05/28 11:55:27;;;;;;;5.53;3.92;;;19.00;99.90;;;;;;5074868;28;20539;-75
2021/05/28 11:57:57;;;;;;;6.25;3.65;;;18.90;99.90;;;;;;5072758;28;20032;-70
2021/05/28 12:00:24;;;;;;;5.20;3.80;;;19.00;99.90;;;;;;5064501;28;20455;-70
2021/05/28 12:02:52;;;;;;;4.93;4.30;;;19.30;99.90;;;;;;5061131;28;20032;-76
2021/05/28 12:05:31;;;;;;;6.72;4.65;;;19.10;99.90;;;;;;5046818;28;20036;-76
2021/05/28 12:08:29;;;;;;;6.22;3.95;;;19.30;99.90;;;;;;5057033;28;20472;-76
2021/05/28 12:10:56;;;;;;;4.70;3.50;;;19.20;99.90;;;;;;5055199;28;20041;-75
2021/05/28 12:13:25;;;;;;;4.75;4.10;;;19.20;99.90;;;;;;5053819;28;20048;-76
2021/05/28 12:15:56;;;;;;;5.40;3.75;;;19.30;99.90;;;;;;5036003;28;20060;-76
2021/05/28 12:18:31;;;;;;;5.47;3.70;;;19.40;99.90;;;;;;5055765;28;20549;-76
2021/05/28 12:20:58;;;;;;;6.10;3.95;;;19.70;99.90;;;;;;5056141;28;20030;-78
2021/05/28 12:23:23;;;;;;;6.13;3.80;;;19.80;99.90;;;;;;5052589;28;20028;-78
2021/05/28 12:25:55;;;;;;;5.68;3.72;;;19.90;99.90;;;;;;5035860;28;20500;-78
2021/05/28 12:28:28;;;;;;;5.45;3.15;;;20.10;99.90;;;;;;5056263;28;20524;-77
2021/05/28 12:31:02;;;;;;;6.85;3.78;;;20.00;99.90;;;;;;5045163;28;20430;-78
2021/05/28 12:33:30;;;;;;;6.13;4.22;;;20.10;99.90;;;;;;5042484;28;20017;-77
2021/05/28 12:35:59;;;;;;;6.22;3.50;;;20.20;99.90;;;;;;5056062;28;20037;-77
2021/05/28 12:38:32;;;;;;;4.75;3.85;;;20.50;99.90;;;;;;5062329;28;20036;-78
2021/05/28 12:40:59;;;;;;;5.15;3.30;;;20.80;99.90;;;;;;5053583;28;20480;-78
2021/05/28 12:43:28;;;;;;;4.40;2.95;;;21.00;99.90;;;;;;5063210;28;20029;-78
2021/05/28 12:45:54;;;;;;;4.43;3.17;;;20.90;98.80;;;;;;5051393;28;20064;-78
2021/05/28 12:48:21;;;;;;;6.15;4.35;;;20.70;99.40;;;;;;5067895;28;20039;-78
2021/05/28 12:50:50;;;;;;;4.45;3.67;;;20.50;95.70;;;;;;5068012;28;20028;-78
2021/05/28 12:53:21;;;;;;;6.75;3.60;;;20.30;95.80;;;;;;5052934;28;20033;-76
2021/05/28 12:55:53;;;;;;;4.38;3.00;;;19.90;97.60;;;;;;5055262;28;20064;-76